createdAt,value
2023-05-06T00:02:06.147Z,99456.00
2023-05-06T00:04:32.716Z,99461.40
2023-05-06T00:06:59.476Z,99462.00
2023-05-06T00:09:25.912Z,99470.40
2023-05-06T00:11:52.324Z,99473.60
2023-05-06T00:14:18.977Z,99468.80
2023-05-06T00:16:46.041Z,99469.20
2023-05-06T00:19:12.612Z,99465.80
2023-05-06T00:21:38.999Z,99465.20
2023-05-06T00:24:06.146Z,99468.80
2023-05-06T00:26:32.613Z,99470.20
2023-05-06T00:28:59.106Z,99473.40
2023-05-06T00:31:25.480Z,99474.60
2023-05-06T00:33:51.917Z,99473.20
2023-05-06T00:36:18.598Z,99474.60
2023-05-06T00:38:45.050Z,99485.00
2023-05-06T00:41:11.410Z,99468.80
2023-05-06T00:43:38.460Z,99471.60
2023-05-06T00:46:09.182Z,99465.60
2023-05-06T00:48:36.203Z,99463.20
2023-05-06T00:51:02.826Z,99461.60
2023-05-06T00:53:29.464Z,99463.20
2023-05-06T00:55:56.506Z,99459.20
2023-05-06T00:58:22.982Z,99455.80
2023-05-06T01:00:50.192Z,99455.20
2023-05-06T01:03:17.307Z,99453.80
2023-05-06T01:06:25.992Z,99458.20
2023-05-06T01:09:13.513Z,99458.20
2023-05-06T01:11:53.044Z,99455.80
2023-05-06T01:14:30.360Z,99461.40
2023-05-06T01:17:04.658Z,99464.20
2023-05-06T01:19:42.318Z,99459.20
2023-05-06T01:22:11.528Z,99457.60
2023-05-06T01:24:44.617Z,99451.60
2023-05-06T01:27:13.245Z,99455.00
2023-05-06T01:29:42.682Z,99451.60
2023-05-06T01:32:41.867Z,99449.80
2023-05-06T01:35:26.707Z,99444.80
2023-05-06T01:38:14.466Z,99444.60
2023-05-06T01:40:43.988Z,99445.40
2023-05-06T01:43:13.280Z,99441.00
2023-05-06T01:45:41.435Z,99437.80
2023-05-06T01:48:09.448Z,99440.40
2023-05-06T01:50:37.490Z,99433.20
2023-05-06T01:53:03.946Z,99428.80
2023-05-06T01:55:30.570Z,99428.20
2023-05-06T01:57:56.970Z,99425.60
2023-05-06T02:00:25.506Z,99428.60
2023-05-06T02:02:52.237Z,99431.40
2023-05-06T02:05:19.010Z,99432.00
2023-05-06T02:07:45.699Z,99435.20
2023-05-06T02:13:06.570Z,99439.60
2023-05-06T02:15:32.977Z,99440.20
2023-05-06T02:17:59.952Z,99442.00
2023-05-06T02:20:26.624Z,99437.80
2023-05-06T02:22:53.030Z,99439.00
2023-05-06T02:25:19.409Z,99434.60
2023-05-06T02:27:45.872Z,99434.40
2023-05-06T02:30:12.721Z,99436.20
2023-05-06T02:32:39.158Z,99438.40
2023-05-06T02:35:07.207Z,99441.80
2023-05-06T02:37:33.708Z,99434.60
2023-05-06T02:40:00.157Z,99433.60
2023-05-06T02:42:26.719Z,99428.20
2023-05-06T02:44:53.194Z,99424.60
2023-05-06T02:47:19.667Z,99434.00
2023-05-06T02:49:46.077Z,99432.60
2023-05-06T02:52:12.546Z,99432.00
2023-05-06T02:54:38.953Z,99431.40
2023-05-06T02:57:05.391Z,99427.00
2023-05-06T02:59:31.771Z,99424.60
2023-05-06T03:01:58.126Z,99430.40
2023-05-06T03:04:24.741Z,99438.00
2023-05-06T03:06:51.113Z,99429.60
2023-05-06T03:09:17.544Z,99428.20
2023-05-06T03:11:44.003Z,99419.80
2023-05-06T03:14:10.567Z,99416.00
2023-05-06T03:16:37.084Z,99416.20
2023-05-06T03:19:06.642Z,99407.20
2023-05-06T03:21:33.186Z,99406.00
2023-05-06T03:23:59.795Z,99401.80
2023-05-06T03:26:26.357Z,99397.20
2023-05-06T03:28:52.781Z,99392.00
2023-05-06T03:31:19.254Z,99394.00
2023-05-06T03:33:45.832Z,99389.40
2023-05-06T03:36:14.869Z,99389.40
2023-05-06T03:38:41.639Z,99382.80
2023-05-06T03:41:08.485Z,99387.20
2023-05-06T03:43:34.957Z,99384.40
2023-05-06T03:46:01.565Z,99383.00
2023-05-06T03:48:27.980Z,99388.20
2023-05-06T03:50:54.592Z,99392.60
2023-05-06T03:53:21.581Z,99391.40
2023-05-06T03:55:48.110Z,99393.60
2023-05-06T03:58:14.577Z,99394.80
2023-05-06T04:00:41.467Z,99399.20
2023-05-06T04:03:08.103Z,99398.40
2023-05-06T04:05:34.556Z,99395.20
2023-05-06T04:08:01.076Z,99390.80
2023-05-06T04:10:27.552Z,99389.40
2023-05-06T04:12:53.994Z,99390.80
2023-05-06T04:15:20.847Z,99385.20
2023-05-06T04:17:47.332Z,99389.80
2023-05-06T04:20:14.361Z,99389.80
2023-05-06T04:22:40.847Z,99388.40
2023-05-06T04:25:08.632Z,99390.20
2023-05-06T04:27:35.474Z,99387.80
2023-05-06T04:30:01.877Z,99391.40
2023-05-06T04:32:28.664Z,99385.00
2023-05-06T04:34:56.807Z,99382.60
2023-05-06T04:37:23.347Z,99382.00
2023-05-06T04:39:50.195Z,99379.40
2023-05-06T04:42:16.768Z,99376.80
2023-05-06T04:44:43.641Z,99370.40
2023-05-06T04:47:10.241Z,99369.00
2023-05-06T04:49:36.970Z,99377.80
2023-05-06T04:52:04.214Z,99371.20
2023-05-06T04:54:30.644Z,99373.20
2023-05-06T04:56:57.096Z,99380.60
2023-05-06T04:59:23.809Z,99378.00
2023-05-06T05:01:50.401Z,99371.60
2023-05-06T05:04:16.953Z,99375.40
2023-05-06T05:06:43.488Z,99374.80
2023-05-06T05:09:10.629Z,99374.20
2023-05-06T05:11:38.351Z,99364.40
2023-05-06T05:14:04.904Z,99364.00
2023-05-06T05:16:31.549Z,99366.20
2023-05-06T05:18:58.002Z,99363.00
2023-05-06T05:21:24.577Z,99365.60
2023-05-06T05:23:50.960Z,99373.60
2023-05-06T05:26:17.340Z,99364.60
2023-05-06T05:28:44.228Z,99354.60
2023-05-06T05:31:11.140Z,99347.40
2023-05-06T05:33:37.663Z,99350.20
2023-05-06T05:36:04.828Z,99349.00
2023-05-06T05:38:31.469Z,99346.60
2023-05-06T05:40:58.037Z,99349.20
2023-05-06T05:43:25.978Z,99340.20
2023-05-06T05:45:52.485Z,99339.00
2023-05-06T05:48:19.347Z,99338.00
2023-05-06T05:50:46.782Z,99342.20
2023-05-06T05:53:13.202Z,99342.80
2023-05-06T05:55:39.767Z,99336.60
2023-05-06T05:58:06.348Z,99339.60
2023-05-06T06:00:32.786Z,99337.00
2023-05-06T06:02:59.211Z,99332.60
2023-05-06T06:05:25.913Z,99320.80
2023-05-06T06:07:52.356Z,99315.60
2023-05-06T06:10:18.877Z,99319.20
2023-05-06T06:12:45.285Z,99315.60
2023-05-06T06:15:12.013Z,99314.40
2023-05-06T06:17:38.638Z,99306.60
2023-05-06T06:20:06.263Z,99312.20
2023-05-06T06:22:32.791Z,99314.20
2023-05-06T06:24:59.214Z,99317.20
2023-05-06T06:27:25.667Z,99311.60
2023-05-06T06:29:52.132Z,99312.40
2023-05-06T06:32:19.624Z,99307.80
2023-05-06T06:34:46.069Z,99300.00
2023-05-06T06:37:12.821Z,99303.20
2023-05-06T06:39:39.302Z,99300.40
2023-05-06T06:42:06.937Z,99293.40
2023-05-06T06:44:36.832Z,99293.40
2023-05-06T06:47:03.352Z,99287.60
2023-05-06T06:49:31.434Z,99283.80
2023-05-06T06:51:57.950Z,99289.00
2023-05-06T06:54:24.645Z,99291.80
2023-05-06T06:56:56.012Z,99292.60
2023-05-06T06:59:22.524Z,99291.60
2023-05-06T07:01:49.105Z,99292.40
2023-05-06T07:04:15.596Z,99295.80
2023-05-06T07:06:42.420Z,99293.40
2023-05-06T07:09:08.817Z,99292.00
2023-05-06T07:11:35.255Z,99300.00
2023-05-06T07:14:01.787Z,99295.20
2023-05-06T07:16:28.257Z,99301.20
2023-05-06T07:18:54.647Z,99295.80
2023-05-06T07:21:21.167Z,99285.60
2023-05-06T07:23:47.523Z,99287.00
2023-05-06T07:26:13.914Z,99287.80
2023-05-06T07:28:40.883Z,99288.80
2023-05-06T07:31:07.309Z,99288.60
2023-05-06T07:33:33.787Z,99290.40
2023-05-06T07:36:00.235Z,99287.80
2023-05-06T07:38:27.822Z,99290.20
2023-05-06T07:40:54.215Z,99293.00
2023-05-06T07:43:22.796Z,99298.40
2023-05-06T07:45:49.216Z,99296.40
2023-05-06T07:48:16.993Z,99301.60
2023-05-06T07:50:44.961Z,99296.20
2023-05-06T07:53:11.749Z,99298.80
2023-05-06T07:55:38.214Z,99293.20
2023-05-06T07:58:04.774Z,99293.40
2023-05-06T08:00:31.267Z,99291.80
2023-05-06T08:02:57.740Z,99291.00
2023-05-06T08:05:24.284Z,99289.60
2023-05-06T08:07:51.448Z,99290.00
2023-05-06T08:10:18.707Z,99290.40
2023-05-06T08:12:45.258Z,99289.40
2023-05-06T08:15:12.304Z,99286.20
2023-05-06T08:17:39.032Z,99287.60
2023-05-06T08:20:07.184Z,99292.00
2023-05-06T08:22:33.889Z,99292.20
2023-05-06T08:25:01.487Z,99295.20
2023-05-06T08:27:27.961Z,99290.80
2023-05-06T08:29:54.432Z,99289.20
2023-05-06T08:32:21.174Z,99288.20
2023-05-06T08:34:47.556Z,99299.80
2023-05-06T08:37:14.508Z,99296.80
2023-05-06T08:39:41.358Z,99296.80
2023-05-06T08:42:11.411Z,99290.20
2023-05-06T08:44:38.179Z,99286.20
2023-05-06T08:47:05.331Z,99270.60
2023-05-06T08:49:32.163Z,99279.60
2023-05-06T08:51:59.536Z,99276.60
2023-05-06T08:54:28.678Z,99273.40
2023-05-06T08:56:58.688Z,99266.20
2023-05-06T08:59:30.350Z,99272.40
2023-05-06T09:01:57.152Z,99276.20
2023-05-06T09:04:23.766Z,99279.40
2023-05-06T09:06:50.295Z,99278.00
2023-05-06T09:09:16.839Z,99273.80
2023-05-06T09:11:43.444Z,99279.80
2023-05-06T09:14:14.119Z,99277.20
2023-05-06T09:16:48.023Z,99281.80
2023-05-06T09:19:17.071Z,99283.60
2023-05-06T09:21:47.386Z,99277.80
2023-05-06T09:24:16.646Z,99270.00
2023-05-06T09:26:45.796Z,99267.20
2023-05-06T09:29:12.392Z,99264.80
2023-05-06T09:31:47.747Z,99263.00
2023-05-06T09:34:15.474Z,99262.40
2023-05-06T09:36:42.024Z,99264.40
2023-05-06T09:39:09.744Z,99266.40
2023-05-06T09:41:36.334Z,99263.60
2023-05-06T09:44:03.750Z,99254.40
2023-05-06T09:46:30.320Z,99249.60
2023-05-06T09:48:58.250Z,99245.20
2023-05-06T09:51:29.721Z,99239.00
2023-05-06T09:53:58.006Z,99232.00
2023-05-06T09:56:25.659Z,99229.20
2023-05-06T09:58:54.432Z,99227.40
2023-05-06T10:01:32.848Z,99229.80
2023-05-06T10:04:08.128Z,99224.20
2023-05-06T10:06:36.948Z,99227.00
2023-05-06T10:09:06.317Z,99227.00
2023-05-06T10:11:33.182Z,99230.60
2023-05-06T10:14:00.334Z,99230.40
2023-05-06T10:16:28.245Z,99230.00
2023-05-06T10:18:55.994Z,99234.60
2023-05-06T10:21:32.400Z,99232.00
2023-05-06T10:24:11.315Z,99227.60
2023-05-06T10:26:40.507Z,99228.00
2023-05-06T10:29:11.323Z,99230.80
2023-05-06T10:31:52.291Z,99228.40
2023-05-06T10:34:21.801Z,99228.60
2023-05-06T10:36:57.572Z,99229.00
2023-05-06T10:39:25.275Z,99220.20
2023-05-06T10:41:51.717Z,99222.00
2023-05-06T10:44:18.164Z,99220.60
2023-05-06T10:47:01.904Z,99224.40
2023-05-06T10:49:29.004Z,99218.20
2023-05-06T10:52:14.384Z,99225.80
2023-05-06T10:54:52.271Z,99223.40
2023-05-06T10:57:20.853Z,99222.60
2023-05-06T10:59:48.730Z,99219.80
2023-05-06T11:02:19.952Z,99214.80
2023-05-06T11:05:04.635Z,99212.40
2023-05-06T11:07:31.930Z,99215.40
2023-05-06T11:10:08.018Z,99211.00
2023-05-06T11:12:46.799Z,99205.80
2023-05-06T11:15:43.661Z,99211.80
2023-05-06T11:18:25.894Z,99208.40
2023-05-06T11:21:02.305Z,99205.60
2023-05-06T11:23:49.374Z,99200.00
2023-05-06T11:26:16.430Z,99189.60
2023-05-06T11:28:47.917Z,99185.80
2023-05-06T11:31:15.855Z,99192.20
2023-05-06T11:33:48.079Z,99194.00
2023-05-06T11:36:19.714Z,99207.40
2023-05-06T11:38:53.128Z,99206.60
2023-05-06T11:41:21.931Z,99207.60
2023-05-06T11:43:51.155Z,99203.60
2023-05-06T11:46:23.054Z,99201.20
2023-05-06T11:48:50.858Z,99199.20
2023-05-06T11:51:24.033Z,99193.00
2023-05-06T11:53:52.165Z,99195.60
2023-05-06T11:56:18.756Z,99190.60
2023-05-06T11:58:46.442Z,99188.20
2023-05-06T12:01:14.412Z,99190.60
2023-05-06T12:03:41.209Z,99193.60
2023-05-06T12:06:08.550Z,99196.80
2023-05-06T12:08:36.757Z,99204.60
2023-05-06T12:11:11.233Z,99201.00
2023-05-06T12:13:42.136Z,99200.20
2023-05-06T12:16:09.948Z,99211.20
2023-05-06T12:18:36.635Z,99208.80
2023-05-06T12:21:03.286Z,99207.80
2023-05-06T12:23:29.898Z,99205.60
2023-05-06T12:26:06.764Z,99201.00
2023-05-06T12:28:36.158Z,99206.40
2023-05-06T12:31:23.301Z,99200.80
2023-05-06T12:33:50.534Z,99201.60
2023-05-06T12:36:18.804Z,99211.40
2023-05-06T12:38:57.020Z,99210.80
2023-05-06T12:41:34.346Z,99209.20
2023-05-06T12:44:00.937Z,99206.80
2023-05-06T12:46:27.362Z,99204.80
2023-05-06T12:49:01.998Z,99202.00
2023-05-06T12:51:30.747Z,99200.00
2023-05-06T12:53:57.213Z,99195.80
2023-05-06T12:56:24.033Z,99194.60
2023-05-06T12:59:03.320Z,99200.60
2023-05-06T13:01:29.817Z,99195.60
2023-05-06T13:03:59.237Z,99197.00
2023-05-06T13:06:25.664Z,99194.40
2023-05-06T13:08:52.815Z,99192.60
2023-05-06T13:11:19.416Z,99180.60
2023-05-06T13:13:46.040Z,99175.40
2023-05-06T13:16:12.542Z,99169.40
2023-05-06T13:18:38.962Z,99168.60
2023-05-06T13:21:05.705Z,99168.40
2023-05-06T13:23:37.415Z,99162.60
2023-05-06T13:26:06.022Z,99169.60
2023-05-06T13:28:35.376Z,99176.60
2023-05-06T13:31:01.927Z,99181.40
2023-05-06T13:33:28.434Z,99176.60
2023-05-06T13:35:55.733Z,99174.40
2023-05-06T13:38:22.265Z,99170.20
2023-05-06T13:40:51.629Z,99162.00
2023-05-06T13:43:19.055Z,99162.00
2023-05-06T13:45:45.825Z,99156.00
2023-05-06T13:48:13.645Z,99154.20
2023-05-06T13:50:48.146Z,99150.80
2023-05-06T13:53:15.397Z,99147.20
2023-05-06T13:55:42.921Z,99147.00
2023-05-06T13:58:10.158Z,99147.80
2023-05-06T14:00:36.712Z,99156.20
2023-05-06T14:03:03.754Z,99155.00
2023-05-06T14:05:30.614Z,99139.40
2023-05-06T14:07:56.983Z,99147.20
2023-05-06T14:10:23.633Z,99137.00
2023-05-06T14:12:50.079Z,99139.00
2023-05-06T14:15:17.178Z,99129.80
2023-05-06T14:17:43.809Z,99129.80
2023-05-06T14:20:10.895Z,99120.60
2023-05-06T14:22:41.200Z,99123.60
2023-05-06T14:25:09.527Z,99129.40
2023-05-06T14:27:37.023Z,99128.40
2023-05-06T14:30:08.195Z,99132.00
2023-05-06T14:32:35.751Z,99135.00
2023-05-06T14:35:02.263Z,99135.20
2023-05-06T14:37:28.832Z,99130.20
2023-05-06T14:39:57.210Z,99130.40
2023-05-06T14:42:23.900Z,99133.80
2023-05-06T14:44:50.831Z,99134.40
2023-05-06T14:47:17.565Z,99135.20
2023-05-06T14:49:44.083Z,99135.80
2023-05-06T14:52:10.543Z,99138.00
2023-05-06T14:54:42.829Z,99139.60
2023-05-06T14:57:10.780Z,99144.80
2023-05-06T14:59:38.579Z,99144.60
2023-05-06T15:02:09.045Z,99152.40
2023-05-06T15:04:36.828Z,99150.00
2023-05-06T15:07:04.077Z,99153.80
2023-05-06T15:09:31.021Z,99156.20
2023-05-06T15:11:58.289Z,99161.00
2023-05-06T15:14:24.771Z,99165.80
2023-05-06T15:16:56.953Z,99168.20
2023-05-06T15:19:24.260Z,99177.40
2023-05-06T15:21:51.383Z,99174.80
2023-05-06T15:24:17.904Z,99188.60
2023-05-06T15:26:44.374Z,99187.20
2023-05-06T15:29:10.776Z,99198.40
2023-05-06T15:31:39.383Z,99201.00
2023-05-06T15:34:07.512Z,99202.00
2023-05-06T15:36:34.024Z,99204.20
2023-05-06T15:39:01.192Z,99203.20
2023-05-06T15:41:34.297Z,99212.80
2023-05-06T15:44:02.526Z,99213.80
2023-05-06T15:46:31.426Z,99216.40
2023-05-06T15:49:21.189Z,99215.40
2023-05-06T15:51:44.916Z,99217.80
2023-05-06T15:54:11.339Z,99216.80
2023-05-06T15:56:40.972Z,99211.40
2023-05-06T15:59:08.232Z,99209.00
2023-05-06T16:02:08.466Z,99205.60
2023-05-06T16:04:21.483Z,99203.60
2023-05-06T16:06:48.916Z,99201.80
2023-05-06T16:09:15.452Z,99200.00
2023-05-06T16:11:41.857Z,99201.40
2023-05-06T16:14:08.314Z,99205.80
2023-05-06T16:16:34.852Z,99208.00
2023-05-06T16:19:01.460Z,99208.00
2023-05-06T16:21:28.756Z,99205.20
2023-05-06T16:23:55.424Z,99202.40
2023-05-06T16:26:22.078Z,99205.40
2023-05-06T16:28:48.528Z,99205.40
2023-05-06T16:31:15.069Z,99210.00
2023-05-06T16:33:41.492Z,99204.00
2023-05-06T16:36:08.668Z,99209.40
2023-05-06T16:38:35.092Z,99209.20
2023-05-06T16:41:01.532Z,99212.80
2023-05-06T16:43:28.040Z,99219.00
2023-05-06T16:45:54.516Z,99208.60
2023-05-06T16:48:21.228Z,99214.60
2023-05-06T16:50:47.970Z,99217.60
2023-05-06T16:53:15.817Z,99212.00
2023-05-06T16:55:47.574Z,99214.80
2023-05-06T16:58:14.263Z,99213.00
2023-05-06T20:06:33.112Z,99320.20
2023-05-06T20:09:00.044Z,99322.20
2023-05-06T20:11:26.535Z,99317.20
2023-05-06T20:13:53.006Z,99314.20
2023-05-06T20:16:19.551Z,99314.80
2023-05-06T20:18:47.638Z,99315.20
2023-05-06T20:21:16.064Z,99303.00
2023-05-06T20:23:42.562Z,99306.80
2023-05-06T20:26:09.053Z,99311.20
2023-05-06T20:28:39.031Z,99309.20
2023-05-06T20:33:33.224Z,99295.80
2023-05-06T20:35:59.671Z,99300.00
2023-05-06T20:38:27.342Z,99302.60
2023-05-06T20:40:53.877Z,99310.20
2023-05-06T20:43:20.348Z,99309.40
2023-05-06T20:45:46.992Z,99306.80
2023-05-06T20:48:15.139Z,99303.60
2023-05-06T20:50:42.050Z,99310.00
2023-05-06T20:53:08.624Z,99309.80
2023-05-06T20:55:35.284Z,99311.80
2023-05-06T20:58:01.802Z,99311.60
2023-05-06T21:00:28.237Z,99315.80
2023-05-06T21:02:54.695Z,99320.20
2023-05-06T21:05:21.244Z,99321.60
2023-05-06T21:07:47.746Z,99326.00
2023-05-06T21:10:14.570Z,99332.80
2023-05-06T21:12:47.935Z,99331.20
2023-05-06T21:15:15.105Z,99334.20
2023-05-06T21:17:41.857Z,99329.80
2023-05-06T21:20:09.334Z,99333.80
2023-05-06T21:22:35.976Z,99335.00
2023-05-06T21:25:02.536Z,99330.20
2023-05-06T21:27:28.965Z,99333.80
2023-05-06T21:29:55.509Z,99343.40
2023-05-06T21:32:22.215Z,99337.20
2023-05-06T21:34:49.041Z,99341.80
2023-05-06T21:37:15.891Z,99345.80
2023-05-06T21:39:42.636Z,99346.00
2023-05-06T21:42:09.178Z,99350.80
2023-05-06T21:44:36.110Z,99355.60
2023-05-06T21:47:02.720Z,99355.20
2023-05-06T21:49:29.378Z,99350.40
2023-05-06T21:51:56.569Z,99355.60
2023-05-06T21:54:24.325Z,99354.80
2023-05-06T21:56:51.145Z,99351.20
2023-05-06T21:59:19.840Z,99354.40
2023-05-06T22:01:46.721Z,99352.00
2023-05-06T22:04:14.620Z,99350.00
2023-05-06T22:06:41.486Z,99355.00
2023-05-06T22:09:11.359Z,99353.60
2023-05-06T22:11:38.722Z,99356.40
2023-05-06T22:14:06.886Z,99361.60
2023-05-06T22:16:35.803Z,99363.20
2023-05-06T22:19:03.979Z,99363.60
2023-05-06T22:21:31.867Z,99367.20
2023-05-06T22:23:58.537Z,99365.00
2023-05-06T22:26:25.175Z,99361.60
2023-05-06T22:28:52.029Z,99364.80
2023-05-06T22:31:18.564Z,99365.00
2023-05-06T22:33:45.117Z,99370.20
2023-05-06T22:36:11.676Z,99363.80
2023-05-06T22:38:38.172Z,99362.60
2023-05-06T22:41:04.758Z,99356.40
2023-05-06T22:43:32.193Z,99355.80
2023-05-06T22:45:58.715Z,99351.00
2023-05-06T22:48:25.414Z,99349.80
2023-05-06T22:50:52.800Z,99358.40
2023-05-06T22:53:19.396Z,99355.80
2023-05-06T22:55:46.010Z,99355.80
2023-05-06T22:58:12.464Z,99357.40
2023-05-06T23:00:39.085Z,99359.60
2023-05-06T23:03:06.050Z,99361.20
2023-05-06T23:05:32.593Z,99356.60
2023-05-06T23:07:59.016Z,99359.20
2023-05-06T23:10:25.959Z,99357.80
2023-05-06T23:12:52.493Z,99362.00
2023-05-06T23:15:19.036Z,99367.60
2023-05-06T23:17:45.779Z,99365.60
2023-05-06T23:20:12.938Z,99371.60
2023-05-06T23:22:39.456Z,99369.80
2023-05-06T23:25:08.415Z,99368.20
2023-05-06T23:27:35.932Z,99373.20
2023-05-06T23:30:02.527Z,99374.60
2023-05-06T23:32:29.071Z,99375.40
2023-05-06T23:34:55.738Z,99379.00
2023-05-06T23:37:22.202Z,99381.40
2023-05-06T23:39:48.845Z,99380.00
2023-05-06T23:42:15.397Z,99376.80
2023-05-06T23:44:41.851Z,99378.40
2023-05-06T23:47:08.447Z,99383.00
2023-05-06T23:49:35.495Z,99383.00
2023-05-06T23:52:02.110Z,99377.80
2023-05-06T23:54:28.808Z,99382.00
2023-05-06T23:56:55.899Z,99379.20
2023-05-06T23:59:22.562Z,99381.40
